createdAt,value
2023-06-04T00:01:30.231Z,102293.00
2023-06-04T00:04:01.942Z,102289.78
2023-06-04T00:06:30.118Z,102293.50
2023-06-04T00:08:58.117Z,102290.31
2023-06-04T00:11:27.802Z,102292.31
2023-06-04T00:13:55.918Z,102301.41
2023-06-04T00:16:23.937Z,102292.47
2023-06-04T00:18:52.127Z,102298.19
2023-06-04T00:21:21.477Z,102293.16
2023-06-04T00:23:49.529Z,102290.47
2023-06-04T00:26:17.554Z,102288.09
2023-06-04T00:28:48.541Z,102284.06
2023-06-04T00:31:17.009Z,102280.84
2023-06-04T00:33:45.079Z,102283.03
2023-06-04T00:36:13.311Z,102273.28
2023-06-04T00:38:42.694Z,102274.28
2023-06-04T00:41:10.616Z,102283.34
2023-06-04T00:43:38.632Z,102287.41
2023-06-04T00:46:08.103Z,102287.56
2023-06-04T00:48:38.037Z,102292.94
2023-06-04T00:51:06.419Z,102285.03
2023-06-04T00:53:34.522Z,102290.94
2023-06-04T00:56:06.821Z,102294.47
2023-06-04T00:58:36.219Z,102281.69
2023-06-04T01:01:05.355Z,102286.41
2023-06-04T01:03:34.109Z,102291.09
2023-06-04T01:06:04.677Z,102285.03
2023-06-04T01:08:32.670Z,102290.41
2023-06-04T01:11:00.690Z,102279.16
2023-06-04T01:13:30.666Z,102277.63
2023-06-04T01:16:00.919Z,102282.34
2023-06-04T01:18:30.145Z,102289.75
2023-06-04T01:21:00.133Z,102288.06
2023-06-04T01:23:34.907Z,102287.06
2023-06-04T01:26:04.846Z,102280.66
2023-06-04T01:28:35.341Z,102281.31
2023-06-04T01:31:03.950Z,102288.41
2023-06-04T01:33:32.196Z,102288.72
2023-06-04T01:36:01.092Z,102286.03
2023-06-04T01:38:29.210Z,102283.34
2023-06-04T01:41:02.010Z,102283.34
2023-06-04T01:43:30.643Z,102282.69
2023-06-04T01:46:00.230Z,102281.84
2023-06-04T01:48:28.302Z,102281.31
2023-06-04T01:50:56.281Z,102288.72
2023-06-04T01:53:24.202Z,102287.88
2023-06-04T01:55:52.305Z,102291.41
2023-06-04T01:58:23.947Z,102289.03
2023-06-04T02:00:54.092Z,102291.72
2023-06-04T02:03:24.204Z,102296.41
2023-06-04T02:05:52.291Z,102298.44
2023-06-04T02:08:21.024Z,102296.75
2023-06-04T02:10:49.109Z,102299.75
2023-06-04T02:13:17.409Z,102303.59
2023-06-04T02:15:45.395Z,102299.41
2023-06-04T02:18:17.534Z,102302.56
2023-06-04T02:20:47.358Z,102310.28
2023-06-04T02:23:16.118Z,102302.72
2023-06-04T02:25:45.651Z,102301.31
2023-06-04T02:28:13.743Z,102298.28
2023-06-04T02:30:41.784Z,102306.78
2023-06-04T02:33:11.222Z,102303.22
2023-06-04T02:35:39.557Z,102299.47
2023-06-04T02:38:08.923Z,102302.81
2023-06-04T02:40:36.917Z,102313.00
2023-06-04T02:43:04.885Z,102304.44
2023-06-04T02:45:32.993Z,102308.41
2023-06-04T02:48:01.121Z,102305.06
2023-06-04T02:50:29.186Z,102303.69
2023-06-04T02:52:57.150Z,102299.66
2023-06-04T02:55:26.660Z,102299.25
2023-06-04T02:57:54.651Z,102302.56
2023-06-04T03:00:22.659Z,102296.00
2023-06-04T03:02:50.868Z,102293.75
2023-06-04T03:05:19.804Z,102301.41
2023-06-04T03:07:48.226Z,102300.34
2023-06-04T03:10:17.349Z,102302.34
2023-06-04T03:12:46.783Z,102304.34
2023-06-04T03:15:14.823Z,102298.97
2023-06-04T03:17:42.982Z,102303.22
2023-06-04T03:20:11.576Z,102305.72
2023-06-04T03:22:39.855Z,102301.38
2023-06-04T03:25:08.524Z,102293.47
2023-06-04T03:27:36.880Z,102279.50
2023-06-04T03:30:09.668Z,102281.81
2023-06-04T03:32:48.769Z,102289.31
2023-06-04T03:35:17.431Z,102274.69
2023-06-04T03:37:45.490Z,102273.94
2023-06-04T03:40:14.514Z,102272.53
2023-06-04T03:42:45.418Z,102273.84
2023-06-04T03:45:16.176Z,102267.41
2023-06-04T03:47:44.326Z,102266.34
2023-06-04T03:50:12.996Z,102277.81
2023-06-04T03:52:41.037Z,102275.50
2023-06-04T03:55:12.298Z,102273.00
2023-06-04T03:57:41.158Z,102269.22
2023-06-04T04:00:13.542Z,102281.41
2023-06-04T04:02:43.409Z,102275.81
2023-06-04T04:05:19.689Z,102282.44
2023-06-04T04:07:49.728Z,102280.50
2023-06-04T04:10:21.637Z,102277.28
2023-06-04T04:12:50.248Z,102280.25
2023-06-04T04:15:20.494Z,102272.50
2023-06-04T04:17:50.337Z,102276.31
2023-06-04T04:20:19.285Z,102290.41
2023-06-04T04:22:58.187Z,102285.34
2023-06-04T04:25:27.732Z,102279.16
2023-06-04T04:27:57.552Z,102284.50
2023-06-04T04:30:27.182Z,102287.31
2023-06-04T04:32:57.632Z,102292.84
2023-06-04T04:35:33.787Z,102290.16
2023-06-04T04:38:05.136Z,102299.91
2023-06-04T04:40:37.931Z,102304.94
2023-06-04T04:43:07.831Z,102310.03
2023-06-04T04:45:37.136Z,102302.38
2023-06-04T04:48:08.668Z,102302.38
2023-06-04T04:50:37.071Z,102308.00
2023-06-04T04:53:06.356Z,102307.53
2023-06-04T04:55:36.414Z,102310.78
2023-06-04T04:58:04.829Z,102312.31
2023-06-04T05:00:33.448Z,102304.13
2023-06-04T05:03:02.888Z,102302.28
2023-06-04T05:05:32.594Z,102307.81
2023-06-04T05:08:01.385Z,102296.25
2023-06-04T05:10:37.134Z,102293.56
2023-06-04T05:13:07.444Z,102309.47
2023-06-04T05:15:53.825Z,102304.97
2023-06-04T05:18:30.083Z,102297.63
2023-06-04T05:21:03.985Z,102300.44
2023-06-04T05:23:38.343Z,102302.97
2023-06-04T05:26:07.562Z,102301.16
2023-06-04T05:28:35.662Z,102306.38
2023-06-04T05:31:05.766Z,102299.00
2023-06-04T05:33:36.420Z,102298.44
2023-06-04T05:36:10.601Z,102290.47
2023-06-04T05:38:44.897Z,102295.66
2023-06-04T05:41:15.618Z,102300.13
2023-06-04T05:43:45.717Z,102299.38
2023-06-04T05:46:17.024Z,102312.41
2023-06-04T05:48:46.170Z,102307.13
2023-06-04T05:51:16.644Z,102308.81
2023-06-04T05:53:45.352Z,102310.19
2023-06-04T05:56:13.344Z,102311.25
2023-06-04T05:58:41.404Z,102310.63
2023-06-04T06:01:10.299Z,102309.72
2023-06-04T06:03:38.930Z,102314.47
2023-06-04T06:06:07.304Z,102315.53
2023-06-04T06:08:36.772Z,102316.63
2023-06-04T06:11:08.416Z,102316.97
2023-06-04T06:13:38.275Z,102305.47
2023-06-04T06:16:06.772Z,102304.00
2023-06-04T06:18:34.984Z,102309.59
2023-06-04T06:21:02.956Z,102311.50
2023-06-04T06:23:31.274Z,102309.16
2023-06-04T06:26:02.895Z,102300.13
2023-06-04T06:28:33.428Z,102305.53
2023-06-04T06:31:02.175Z,102303.91
2023-06-04T06:33:30.184Z,102312.81
2023-06-04T06:35:58.269Z,102303.97
2023-06-04T06:38:26.582Z,102311.22
2023-06-04T06:40:54.559Z,102308.38
2023-06-04T06:43:23.955Z,102316.81
2023-06-04T06:45:51.989Z,102298.03
2023-06-04T06:48:19.990Z,102295.72
2023-06-04T06:50:47.951Z,102300.59
2023-06-04T06:53:15.935Z,102297.41
2023-06-04T06:55:43.923Z,102304.50
2023-06-04T06:58:11.850Z,102297.47
2023-06-04T07:00:41.382Z,102290.41
2023-06-04T07:03:09.856Z,102290.59
2023-06-04T07:05:37.817Z,102291.13
2023-06-04T07:08:06.523Z,102298.38
2023-06-04T07:10:34.473Z,102299.03
2023-06-04T07:13:02.477Z,102292.16
2023-06-04T07:15:30.533Z,102295.91
2023-06-04T07:17:59.933Z,102283.78
2023-06-04T07:20:28.021Z,102294.72
2023-06-04T07:22:56.080Z,102298.41
2023-06-04T07:25:24.908Z,102286.81
2023-06-04T07:27:52.925Z,102296.22
2023-06-04T07:30:21.021Z,102295.56
2023-06-04T07:32:49.830Z,102292.19
2023-06-04T07:35:19.325Z,102285.59
2023-06-04T07:37:48.943Z,102286.09
2023-06-04T07:40:17.014Z,102292.81
2023-06-04T07:42:45.084Z,102299.56
2023-06-04T07:45:13.132Z,102292.47
2023-06-04T07:47:41.398Z,102309.50
2023-06-04T07:50:10.328Z,102302.22
2023-06-04T07:52:39.703Z,102294.09
2023-06-04T07:55:09.516Z,102296.94
2023-06-04T07:57:38.490Z,102306.53
2023-06-04T08:00:09.425Z,102297.06
2023-06-04T08:02:40.185Z,102295.34
2023-06-04T08:05:08.929Z,102297.31
2023-06-04T08:07:36.941Z,102294.59
2023-06-04T08:10:07.583Z,102308.03
2023-06-04T08:12:35.731Z,102299.59
2023-06-04T08:15:03.721Z,102304.28
2023-06-04T08:17:31.742Z,102301.53
2023-06-04T08:19:59.805Z,102306.22
2023-06-04T08:22:28.574Z,102305.50
2023-06-04T08:24:56.598Z,102310.53
2023-06-04T08:27:26.079Z,102306.09
2023-06-04T08:29:54.211Z,102310.72
2023-06-04T08:32:22.192Z,102317.38
2023-06-04T08:34:50.214Z,102312.59
2023-06-04T08:37:18.670Z,102309.34
2023-06-04T08:39:46.727Z,102317.38
2023-06-04T08:42:21.056Z,102310.56
2023-06-04T08:44:52.759Z,102314.69
2023-06-04T08:47:21.637Z,102301.75
2023-06-04T08:49:51.663Z,102307.53
2023-06-04T08:52:22.652Z,102298.50
2023-06-04T08:54:51.954Z,102293.38
2023-06-04T08:57:20.556Z,102306.34
2023-06-04T08:59:50.156Z,102300.00
2023-06-04T09:02:18.135Z,102304.03
2023-06-04T09:04:46.353Z,102298.22
2023-06-04T09:07:15.492Z,102295.16
2023-06-04T09:09:45.240Z,102297.09
2023-06-04T09:12:14.597Z,102292.63
2023-06-04T09:14:42.534Z,102298.59
2023-06-04T09:17:11.894Z,102297.63
2023-06-04T09:19:39.931Z,102293.56
2023-06-04T09:22:08.021Z,102292.66
2023-06-04T09:24:42.640Z,102290.84
2023-06-04T09:27:14.733Z,102286.75
2023-06-04T09:29:43.033Z,102287.66
2023-06-04T09:32:12.439Z,102295.19
2023-06-04T09:34:46.209Z,102299.00
2023-06-04T09:37:16.378Z,102304.88
2023-06-04T09:39:44.388Z,102304.09
2023-06-04T09:42:12.371Z,102305.38
2023-06-04T09:44:45.237Z,102317.09
2023-06-04T09:47:14.630Z,102306.53
2023-06-04T09:49:43.493Z,102311.19
2023-06-04T09:52:11.606Z,102303.97
2023-06-04T09:54:39.792Z,102315.09
2023-06-04T09:57:08.373Z,102319.53
2023-06-04T09:59:38.934Z,102311.66
2023-06-04T10:02:06.998Z,102308.00
2023-06-04T10:04:37.686Z,102315.41
2023-06-04T10:07:06.339Z,102318.16
2023-06-04T10:09:34.610Z,102320.97
2023-06-04T10:12:03.331Z,102314.34
2023-06-04T10:14:34.339Z,102317.94
2023-06-04T10:17:02.460Z,102318.38
2023-06-04T10:19:30.518Z,102313.81
2023-06-04T10:21:59.999Z,102320.41
2023-06-04T10:24:27.995Z,102321.47
2023-06-04T10:26:56.502Z,102308.13
2023-06-04T10:29:24.487Z,102321.75
2023-06-04T10:31:56.475Z,102331.16
2023-06-04T10:34:24.844Z,102331.19
2023-06-04T10:36:52.863Z,102328.72
2023-06-04T10:39:29.310Z,102328.47
2023-06-04T10:42:01.725Z,102332.28
2023-06-04T10:44:29.948Z,102330.16
2023-06-04T10:46:58.989Z,102340.41
2023-06-04T10:49:30.165Z,102325.34
2023-06-04T10:51:58.521Z,102324.50
2023-06-04T10:54:27.918Z,102331.97
2023-06-04T10:56:55.994Z,102326.91
2023-06-04T10:59:25.471Z,102337.94
2023-06-04T11:01:53.789Z,102332.44
2023-06-04T11:04:23.463Z,102331.28
2023-06-04T11:07:03.021Z,102337.47
2023-06-04T11:09:34.500Z,102329.06
2023-06-04T11:12:02.934Z,102313.09
2023-06-04T11:14:30.978Z,102318.19
2023-06-04T11:16:58.956Z,102321.50
2023-06-04T11:19:26.986Z,102318.91
2023-06-04T11:21:57.074Z,102318.50
2023-06-04T11:24:25.163Z,102318.50
2023-06-04T11:27:07.792Z,102317.53
2023-06-04T11:29:38.941Z,102324.25
2023-06-04T11:32:07.688Z,102325.84
2023-06-04T11:34:35.731Z,102310.59
2023-06-04T11:37:10.462Z,102317.56
2023-06-04T11:39:40.611Z,102313.06
2023-06-04T11:42:10.192Z,102323.47
2023-06-04T11:44:38.220Z,102318.47
2023-06-04T11:47:08.180Z,102315.53
2023-06-04T11:49:36.269Z,102322.44
2023-06-04T11:52:04.514Z,102316.97
2023-06-04T11:54:34.002Z,102310.78
2023-06-04T11:57:02.169Z,102308.69
2023-06-04T11:59:31.639Z,102309.44
2023-06-04T12:02:01.313Z,102304.94
2023-06-04T12:04:31.879Z,102299.28
2023-06-04T12:07:01.433Z,102303.09
2023-06-04T12:09:32.322Z,102306.91
2023-06-04T12:12:00.512Z,102298.94
2023-06-04T12:14:29.495Z,102307.03
2023-06-04T12:16:59.391Z,102302.00
2023-06-04T12:19:28.075Z,102305.28
2023-06-04T12:22:03.829Z,102296.34
2023-06-04T12:24:32.283Z,102295.81
2023-06-04T12:27:03.808Z,102290.19
2023-06-04T12:29:33.074Z,102304.03
2023-06-04T12:32:06.195Z,102295.63
2023-06-04T12:34:34.390Z,102295.88
2023-06-04T12:37:02.448Z,102303.69
2023-06-04T12:39:30.810Z,102305.50
2023-06-04T12:41:58.774Z,102305.44
2023-06-04T12:44:26.945Z,102299.72
2023-06-04T12:46:55.071Z,102300.72
2023-06-04T12:49:24.682Z,102303.34
2023-06-04T12:51:52.760Z,102297.03
2023-06-04T12:54:20.982Z,102304.50
2023-06-04T12:56:48.973Z,102297.22
2023-06-04T12:59:17.088Z,102304.63
2023-06-04T13:01:45.193Z,102299.69
2023-06-04T13:04:13.803Z,102293.38
2023-06-04T13:06:43.149Z,102305.63
2023-06-04T13:09:11.170Z,102301.06
2023-06-04T13:11:39.987Z,102303.28
2023-06-04T13:14:08.666Z,102300.72
2023-06-04T13:16:36.964Z,102295.91
2023-06-04T13:19:05.097Z,102290.50
2023-06-04T13:21:33.193Z,102289.47
2023-06-04T13:24:02.608Z,102286.84
2023-06-04T13:26:31.532Z,102292.47
2023-06-04T13:28:59.633Z,102281.50
2023-06-04T13:31:27.738Z,102277.66
2023-06-04T13:33:55.796Z,102275.75
2023-06-04T13:36:24.332Z,102273.94
2023-06-04T13:38:53.833Z,102287.75
2023-06-04T13:41:23.397Z,102282.00
2023-06-04T13:43:51.318Z,102275.94
2023-06-04T13:46:19.360Z,102283.94
2023-06-04T13:48:47.350Z,102282.31
2023-06-04T13:51:15.420Z,102282.59
2023-06-04T13:53:43.497Z,102291.75
2023-06-04T13:56:11.503Z,102283.50
2023-06-04T13:58:40.894Z,102281.31
2023-06-04T14:01:09.284Z,102275.53
2023-06-04T14:03:37.609Z,102283.00
2023-06-04T14:06:05.782Z,102273.63
2023-06-04T14:08:34.014Z,102274.53
2023-06-04T14:11:02.022Z,102269.00
2023-06-04T14:13:30.331Z,102269.28
2023-06-04T14:15:59.867Z,102263.19
2023-06-04T14:18:27.930Z,102279.75
2023-06-04T14:20:56.001Z,102266.25
2023-06-04T14:23:24.062Z,102268.19
2023-06-04T14:25:52.192Z,102270.13
2023-06-04T14:28:22.011Z,102272.84
2023-06-04T14:30:50.176Z,102261.50
2023-06-04T14:33:19.528Z,102276.16
2023-06-04T14:35:48.343Z,102269.50
2023-06-04T14:38:16.573Z,102273.09
2023-06-04T14:40:45.325Z,102268.94
2023-06-04T14:43:14.478Z,102274.16
2023-06-04T14:45:42.941Z,102264.25
2023-06-04T14:48:15.506Z,102265.09
2023-06-04T14:50:45.651Z,102269.28
2023-06-04T14:53:13.739Z,102263.75
2023-06-04T14:55:42.240Z,102269.81
2023-06-04T14:58:10.201Z,102268.09
2023-06-04T15:00:38.163Z,102266.97
2023-06-04T15:03:06.451Z,102266.97
2023-06-04T15:05:34.492Z,102274.09
2023-06-04T15:08:04.204Z,102273.47
2023-06-04T15:10:38.558Z,102265.19
2023-06-04T15:13:10.301Z,102248.84
2023-06-04T15:15:38.331Z,102257.94
2023-06-04T15:18:07.613Z,102266.44
2023-06-04T15:20:38.640Z,102263.38
2023-06-04T15:23:08.058Z,102253.69
2023-06-04T15:25:36.105Z,102253.94
2023-06-04T15:28:04.114Z,102257.25
2023-06-04T15:30:32.123Z,102251.69
2023-06-04T15:33:01.767Z,102244.34
2023-06-04T15:35:29.939Z,102239.78
2023-06-04T15:37:57.925Z,102237.78
2023-06-04T15:40:27.353Z,102238.09
2023-06-04T15:42:55.318Z,102239.84
2023-06-04T15:45:25.665Z,102229.19
2023-06-04T15:47:53.921Z,102230.06
2023-06-04T15:50:22.154Z,102230.47
2023-06-04T15:52:50.273Z,102231.31
2023-06-04T15:55:18.365Z,102229.09
2023-06-04T15:57:47.905Z,102234.13
2023-06-04T16:00:16.326Z,102232.47
2023-06-04T16:02:44.761Z,102228.25
2023-06-04T16:05:12.836Z,102235.13
2023-06-04T16:07:40.885Z,102222.91
2023-06-04T16:10:09.829Z,102223.44
2023-06-04T16:12:37.824Z,102224.56
2023-06-04T16:15:08.769Z,102215.72
2023-06-04T16:17:36.847Z,102212.44
2023-06-04T16:20:05.245Z,102221.06
2023-06-04T16:22:33.261Z,102221.66
2023-06-04T16:25:01.327Z,102213.09
2023-06-04T16:27:29.364Z,102213.59
2023-06-04T16:29:57.297Z,102215.34
2023-06-04T16:32:26.661Z,102207.63
2023-06-04T16:34:55.859Z,102214.84
2023-06-04T16:37:24.052Z,102208.25
2023-06-04T16:39:52.000Z,102214.34
2023-06-04T16:42:19.990Z,102210.44
2023-06-04T16:44:50.090Z,102210.44
2023-06-04T16:47:18.506Z,102206.94
2023-06-04T16:49:47.884Z,102207.53
2023-06-04T16:52:16.242Z,102202.91
2023-06-04T16:54:44.373Z,102200.75
2023-06-04T16:57:12.445Z,102196.66
2023-06-04T16:59:42.985Z,102201.09
2023-06-04T17:02:11.091Z,102196.97
2023-06-04T17:04:39.492Z,102198.63
2023-06-04T17:07:09.024Z,102193.94
2023-06-04T17:09:37.308Z,102189.78
2023-06-04T17:12:05.577Z,102203.56
2023-06-04T17:14:33.634Z,102200.47
2023-06-04T17:17:01.659Z,102187.97
2023-06-04T17:19:32.793Z,102186.47
2023-06-04T17:22:01.131Z,102188.84
2023-06-04T17:24:30.514Z,102189.94
2023-06-04T17:26:58.650Z,102194.88
2023-06-04T17:29:26.674Z,102185.78
2023-06-04T17:31:54.730Z,102190.06
2023-06-04T17:34:23.021Z,102185.88
2023-06-04T17:36:51.026Z,102183.91
2023-06-04T17:39:19.038Z,102182.50
2023-06-04T17:41:51.396Z,102177.09
2023-06-04T17:44:19.665Z,102180.56
2023-06-04T17:46:47.934Z,102182.03
2023-06-04T17:49:16.330Z,102177.03
2023-06-04T17:51:44.401Z,102185.13
2023-06-04T17:54:12.440Z,102186.00
2023-06-04T17:56:40.642Z,102180.41
2023-06-04T17:59:10.128Z,102183.53
2023-06-04T18:01:38.520Z,102185.78
2023-06-04T18:04:06.934Z,102180.22
2023-06-04T18:06:35.012Z,102188.31
2023-06-04T18:09:03.096Z,102184.56
2023-06-04T18:11:31.344Z,102178.56
2023-06-04T18:14:00.468Z,102177.44
2023-06-04T18:16:29.987Z,102191.69
2023-06-04T18:18:58.017Z,102189.94
2023-06-04T18:21:26.063Z,102185.31
2023-06-04T18:23:54.509Z,102190.63
2023-06-04T18:26:22.558Z,102184.56
2023-06-04T18:28:50.527Z,102193.34
2023-06-04T18:31:18.532Z,102192.75
2023-06-04T18:33:54.350Z,102192.63
2023-06-04T18:36:22.461Z,102193.53
2023-06-04T18:38:50.440Z,102200.72
2023-06-04T18:41:18.698Z,102199.53
2023-06-04T18:43:46.618Z,102204.16
2023-06-04T18:46:14.702Z,102197.56
2023-06-04T18:48:42.787Z,102206.28
2023-06-04T18:51:14.424Z,102195.63
2023-06-04T18:53:42.480Z,102200.31
2023-06-04T18:56:10.496Z,102202.97
2023-06-04T18:58:38.600Z,102212.28
2023-06-04T19:01:07.109Z,102211.94
2023-06-04T19:03:35.388Z,102212.69
2023-06-04T19:06:03.381Z,102211.09
2023-06-04T19:08:32.873Z,102220.19
2023-06-04T19:11:00.987Z,102223.25
2023-06-04T19:13:28.959Z,102223.78
2023-06-04T19:15:56.985Z,102209.16
2023-06-04T19:18:25.063Z,102225.56
2023-06-04T19:20:53.097Z,102222.28
2023-06-04T19:23:21.179Z,102229.28
2023-06-04T19:25:50.748Z,102228.03
2023-06-04T19:28:19.013Z,102229.97
2023-06-04T19:30:47.071Z,102231.44
2023-06-04T19:33:15.186Z,102228.31
2023-06-04T19:35:43.247Z,102224.59
2023-06-04T19:38:11.244Z,102236.03
2023-06-04T19:40:39.354Z,102228.31
2023-06-04T19:43:08.762Z,102235.59
2023-06-04T19:45:36.757Z,102229.69
2023-06-04T19:48:05.089Z,102228.22
2023-06-04T19:50:33.279Z,102241.13
2023-06-04T19:53:01.371Z,102237.94
2023-06-04T19:55:29.390Z,102237.50
2023-06-04T19:57:59.069Z,102236.00
2023-06-04T20:00:28.478Z,102246.97
2023-06-04T20:02:56.596Z,102246.50
2023-06-04T20:05:24.710Z,102259.59
2023-06-04T20:07:52.888Z,102249.94
2023-06-04T20:10:20.883Z,102250.50
2023-06-04T20:12:48.923Z,102251.44
2023-06-04T20:15:17.222Z,102257.97
2023-06-04T20:17:46.737Z,102265.75
2023-06-04T20:20:14.829Z,102267.13
2023-06-04T20:22:42.863Z,102266.44
2023-06-04T20:25:10.942Z,102273.22
2023-06-04T20:27:39.027Z,102284.72
2023-06-04T20:30:08.475Z,102285.22
2023-06-04T20:32:36.510Z,102293.34
2023-06-04T20:35:06.691Z,102296.75
2023-06-04T20:37:36.613Z,102302.25
2023-06-04T20:40:06.363Z,102290.88
2023-06-04T20:42:34.446Z,102302.81
2023-06-04T20:45:02.436Z,102307.66
2023-06-04T20:47:30.454Z,102307.91
2023-06-04T20:49:58.503Z,102313.97
2023-06-04T20:52:27.879Z,102315.78
2023-06-04T20:54:56.010Z,102327.69
2023-06-04T20:57:24.003Z,102309.22
2023-06-04T20:59:51.939Z,102323.13
2023-06-04T21:02:19.971Z,102313.44
2023-06-04T21:04:47.944Z,102318.88
2023-06-04T21:07:16.291Z,102318.09
2023-06-04T21:09:45.731Z,102328.78
2023-06-04T21:12:13.779Z,102325.78
2023-06-04T21:14:42.014Z,102319.03
2023-06-04T21:17:09.998Z,102320.44
2023-06-04T21:19:38.022Z,102318.06
2023-06-04T21:22:06.388Z,102318.44
2023-06-04T21:24:34.426Z,102330.59
2023-06-04T21:27:03.892Z,102326.91
2023-06-04T21:29:31.996Z,102322.53
2023-06-04T21:32:00.075Z,102330.97
2023-06-04T21:34:28.167Z,102327.94
2023-06-04T21:36:56.192Z,102329.31
2023-06-04T21:39:24.226Z,102331.50
2023-06-04T21:41:52.281Z,102329.53
2023-06-04T21:44:21.628Z,102334.59
2023-06-04T21:46:50.206Z,102337.00
2023-06-04T21:49:18.186Z,102338.19
2023-06-04T21:51:46.187Z,102344.41
2023-06-04T21:54:14.138Z,102344.41
2023-06-04T21:56:42.185Z,102347.78
2023-06-04T21:59:10.207Z,102339.88
2023-06-04T22:01:39.797Z,102343.56
2023-06-04T22:04:08.286Z,102337.34
2023-06-04T22:06:36.310Z,102342.56
2023-06-04T22:09:04.353Z,102342.41
2023-06-04T22:11:32.513Z,102348.25
2023-06-04T22:14:00.517Z,102342.69
2023-06-04T22:16:28.594Z,102343.88
2023-06-04T22:18:57.918Z,102345.25
2023-06-04T22:21:26.062Z,102342.25
2023-06-04T22:23:54.540Z,102342.25
2023-06-04T22:26:36.888Z,102348.97
2023-06-04T22:29:06.400Z,102350.66
2023-06-04T22:31:34.475Z,102346.94
2023-06-04T22:34:04.207Z,102348.13
2023-06-04T22:36:32.243Z,102348.97
2023-06-04T22:39:00.216Z,102344.41
2023-06-04T22:41:28.622Z,102358.91
2023-06-04T22:43:56.617Z,102357.06
2023-06-04T22:46:24.642Z,102351.19
2023-06-04T22:48:54.626Z,102357.91
2023-06-04T22:51:24.649Z,102355.38
2023-06-04T22:53:53.352Z,102347.97
2023-06-04T22:56:22.078Z,102362.47
2023-06-04T22:58:50.096Z,102353.69
2023-06-04T23:01:18.181Z,102359.47
2023-06-04T23:03:46.554Z,102351.53
2023-06-04T23:06:14.642Z,102356.09
2023-06-04T23:08:44.080Z,102366.19
2023-06-04T23:11:13.859Z,102370.56
2023-06-04T23:13:41.877Z,102371.59
2023-06-04T23:16:10.901Z,102372.25
2023-06-04T23:18:39.048Z,102356.75
2023-06-04T23:21:07.239Z,102370.72
2023-06-04T23:23:35.434Z,102361.78
2023-06-04T23:26:04.888Z,102364.16
2023-06-04T23:28:33.009Z,102366.53
2023-06-04T23:31:01.052Z,102358.06
2023-06-04T23:33:29.073Z,102375.59
2023-06-04T23:35:57.031Z,102379.31
2023-06-04T23:38:25.060Z,102377.94
2023-06-04T23:40:53.092Z,102385.72
2023-06-04T23:43:22.484Z,102379.34
2023-06-04T23:45:50.501Z,102385.91
2023-06-04T23:48:18.516Z,102382.38
2023-06-04T23:50:46.522Z,102381.38
2023-06-04T23:53:14.521Z,102379.66
2023-06-04T23:55:42.662Z,102382.38
2023-06-04T23:58:10.634Z,102384.41
